TAR6967 DTTA-DTTJ
Flight info
| Callsign | TAR6967 |
|---|---|
| Flight time | 0h 36m |
| Altitude | 21000 |
| Route | GIBLI2C GIBLI A411 MON UA411 ELJEM A411 SFX UA411 JBA |
| Aircraft | A332/H-SDE3GHIJ2J3J5M1RVWXY/LB2D1 |
Departure
| Time | 2026-04-28 18:30 |
|---|---|
| Airport | Tunis Carthage International Airport (DTTA) |
Arrival
| Time | 2026-04-28 19:07 |
|---|---|
| Airport | Djerba Zarzis International Airport (DTTJ) |
| Time | Latitude | Longitude | Altitude | Speed | Heading |
|---|---|---|---|---|---|
| 2026-04-28 18:08 | 36.84528 | 10.21952 | 34 ft | 0 kts | 356° |
| 2026-04-28 18:09 | 36.84020 | 10.21693 | 34 ft | 0 kts | 282° |
| 2026-04-28 18:20 | 36.84020 | 10.21697 | 34 ft | 3 kts | 282° |
| 2026-04-28 18:21 | 36.84014 | 10.21727 | 34 ft | 4 kts | 283° |
| 2026-04-28 18:21 | 36.84008 | 10.21757 | 33 ft | 4 kts | 284° |
| 2026-04-28 18:21 | 36.84002 | 10.21788 | 32 ft | 4 kts | 283° |
| 2026-04-28 18:21 | 36.83997 | 10.21818 | 31 ft | 4 kts | 279° |
| 2026-04-28 18:22 | 36.83995 | 10.21848 | 31 ft | 4 kts | 255° |
| 2026-04-28 18:22 | 36.84004 | 10.21866 | 32 ft | 3 kts | 190° |
| 2026-04-28 18:22 | 36.84028 | 10.21872 | 31 ft | 4 kts | 194° |
| 2026-04-28 18:22 | 36.84052 | 10.21880 | 31 ft | 4 kts | 195° |
| 2026-04-28 18:23 | 36.84064 | 10.21884 | 32 ft | 3 kts | 193° |
| 2026-04-28 18:23 | 36.84065 | 10.21884 | 32 ft | 0 kts | 193° |
| 2026-04-28 18:24 | 36.84055 | 10.21881 | 30 ft | 5 kts | 193° |
| 2026-04-28 18:25 | 36.84023 | 10.21872 | 31 ft | 8 kts | 193° |
| 2026-04-28 18:25 | 36.83962 | 10.21855 | 34 ft | 10 kts | 193° |
| 2026-04-28 18:25 | 36.83906 | 10.21899 | 34 ft | 13 kts | 112° |
| 2026-04-28 18:26 | 36.83953 | 10.22113 | 34 ft | 21 kts | 11° |
| 2026-04-28 18:26 | 36.84100 | 10.22150 | 34 ft | 22 kts | 12° |
| 2026-04-28 18:26 | 36.84250 | 10.22192 | 34 ft | 23 kts | 13° |
| 2026-04-28 18:26 | 36.84406 | 10.22234 | 34 ft | 23 kts | 11° |
| 2026-04-28 18:27 | 36.84565 | 10.22277 | 34 ft | 24 kts | 12° |
| 2026-04-28 18:27 | 36.84728 | 10.22320 | 34 ft | 24 kts | 12° |
| 2026-04-28 18:27 | 36.84894 | 10.22365 | 34 ft | 25 kts | 15° |
| 2026-04-28 18:27 | 36.85023 | 10.22314 | 35 ft | 21 kts | 295° |
| 2026-04-28 18:28 | 36.85079 | 10.22144 | 34 ft | 22 kts | 291° |
| 2026-04-28 18:28 | 36.85137 | 10.21968 | 34 ft | 23 kts | 293° |
| 2026-04-28 18:28 | 36.85200 | 10.21782 | 34 ft | 24 kts | 296° |
| 2026-04-28 18:28 | 36.85330 | 10.21734 | 34 ft | 21 kts | 21° |
| 2026-04-28 18:29 | 36.85402 | 10.21829 | 36 ft | 10 kts | 96° |
| 2026-04-28 18:29 | 36.85389 | 10.21881 | 36 ft | 0 kts | 112° |
| 2026-04-28 18:29 | 36.85352 | 10.21992 | 35 ft | 42 kts | 112° |
| 2026-04-28 18:29 | 36.85155 | 10.22581 | 40 ft | 103 kts | 112° |
| 2026-04-28 18:30 | 36.84814 | 10.23605 | 63 ft | 152 kts | 112° |
| 2026-04-28 18:30 | 36.84531 | 10.24463 | 390 ft | 161 kts | 111° |
| 2026-04-28 18:30 | 36.83988 | 10.26126 | 1500 ft | 155 kts | 114° |
| 2026-04-28 18:30 | 36.83548 | 10.27461 | 1855 ft | 180 kts | 115° |
| 2026-04-28 18:31 | 36.82993 | 10.28998 | 2165 ft | 207 kts | 122° |
| 2026-04-28 18:31 | 36.81967 | 10.30291 | 2743 ft | 216 kts | 153° |
| 2026-04-28 18:31 | 36.80504 | 10.30625 | 3510 ft | 220 kts | 188° |
| 2026-04-28 18:31 | 36.79103 | 10.29866 | 4376 ft | 222 kts | 212° |
| 2026-04-28 18:32 | 36.77856 | 10.28736 | 5274 ft | 221 kts | 216° |
| 2026-04-28 18:32 | 36.76644 | 10.27571 | 6219 ft | 219 kts | 216° |
| 2026-04-28 18:32 | 36.75380 | 10.26452 | 6959 ft | 226 kts | 213° |
| 2026-04-28 18:32 | 36.74013 | 10.25468 | 7814 ft | 227 kts | 208° |
| 2026-04-28 18:33 | 36.72556 | 10.24646 | 8583 ft | 235 kts | 203° |
| 2026-04-28 18:33 | 36.70986 | 10.23996 | 9307 ft | 240 kts | 198° |
| 2026-04-28 18:33 | 36.69347 | 10.23546 | 9810 ft | 242 kts | 193° |
| 2026-04-28 18:33 | 36.67657 | 10.23309 | 9975 ft | 251 kts | 186° |
| 2026-04-28 18:34 | 36.65842 | 10.23308 | 10211 ft | 278 kts | 178° |
| 2026-04-28 18:34 | 36.63809 | 10.23608 | 10465 ft | 302 kts | 175° |
| 2026-04-28 18:34 | 36.61680 | 10.24006 | 10734 ft | 324 kts | 174° |
| 2026-04-28 18:34 | 36.59391 | 10.24505 | 11092 ft | 342 kts | 173° |
| 2026-04-28 18:35 | 36.57022 | 10.25070 | 11712 ft | 350 kts | 172° |
| 2026-04-28 18:35 | 36.54616 | 10.25666 | 12437 ft | 354 kts | 172° |
| 2026-04-28 18:35 | 36.52192 | 10.26272 | 13206 ft | 357 kts | 172° |
| 2026-04-28 18:35 | 36.49728 | 10.26883 | 13843 ft | 365 kts | 173° |
| 2026-04-28 18:36 | 36.47191 | 10.27504 | 14109 ft | 380 kts | 172° |
| 2026-04-28 18:36 | 36.44545 | 10.28141 | 14453 ft | 392 kts | 172° |
| 2026-04-28 18:36 | 36.41840 | 10.28791 | 14994 ft | 398 kts | 172° |
| 2026-04-28 18:36 | 36.39098 | 10.29453 | 15593 ft | 403 kts | 172° |
| 2026-04-28 18:37 | 36.36333 | 10.30120 | 16165 ft | 407 kts | 172° |
| 2026-04-28 18:37 | 36.33539 | 10.30793 | 16749 ft | 411 kts | 172° |
| 2026-04-28 18:37 | 36.30716 | 10.31473 | 17307 ft | 416 kts | 172° |
| 2026-04-28 18:37 | 36.27860 | 10.32159 | 17845 ft | 421 kts | 172° |
| 2026-04-28 18:38 | 36.24967 | 10.32852 | 18366 ft | 425 kts | 172° |
| 2026-04-28 18:38 | 36.22056 | 10.33550 | 18854 ft | 428 kts | 172° |
| 2026-04-28 18:38 | 36.19158 | 10.34245 | 19376 ft | 431 kts | 172° |
| 2026-04-28 18:38 | 36.16208 | 10.34951 | 19909 ft | 433 kts | 172° |
| 2026-04-28 18:39 | 36.13251 | 10.35658 | 20430 ft | 435 kts | 173° |
| 2026-04-28 18:39 | 36.10268 | 10.36370 | 20847 ft | 437 kts | 173° |
| 2026-04-28 18:39 | 36.07285 | 10.37081 | 20982 ft | 438 kts | 173° |
| 2026-04-28 18:39 | 36.04289 | 10.37796 | 20977 ft | 438 kts | 172° |
| 2026-04-28 18:40 | 36.01286 | 10.38511 | 20990 ft | 440 kts | 172° |
| 2026-04-28 18:40 | 35.98274 | 10.39228 | 20992 ft | 441 kts | 172° |
| 2026-04-28 18:40 | 35.95258 | 10.39946 | 20990 ft | 441 kts | 172° |
| 2026-04-28 18:40 | 35.92245 | 10.40663 | 20988 ft | 441 kts | 172° |
| 2026-04-28 18:41 | 35.89265 | 10.41371 | 20985 ft | 441 kts | 172° |
| 2026-04-28 18:41 | 35.86260 | 10.42084 | 20980 ft | 441 kts | 172° |
| 2026-04-28 18:41 | 35.83243 | 10.42800 | 20988 ft | 441 kts | 172° |
| 2026-04-28 18:41 | 35.80236 | 10.43513 | 20991 ft | 441 kts | 173° |
| 2026-04-28 18:42 | 35.77224 | 10.44226 | 20988 ft | 441 kts | 172° |
| 2026-04-28 18:42 | 35.74207 | 10.44939 | 20991 ft | 441 kts | 172° |
| 2026-04-28 18:42 | 35.71190 | 10.45652 | 20990 ft | 441 kts | 172° |
| 2026-04-28 18:42 | 35.68168 | 10.46366 | 20991 ft | 441 kts | 172° |
| 2026-04-28 18:43 | 35.65148 | 10.47079 | 20988 ft | 441 kts | 172° |
| 2026-04-28 18:43 | 35.62125 | 10.47792 | 20988 ft | 441 kts | 172° |
| 2026-04-28 18:43 | 35.59111 | 10.48502 | 20988 ft | 441 kts | 172° |
| 2026-04-28 18:43 | 35.56132 | 10.49204 | 20982 ft | 441 kts | 172° |
| 2026-04-28 18:44 | 35.53104 | 10.49916 | 20989 ft | 441 kts | 172° |
| 2026-04-28 18:44 | 35.47081 | 10.51332 | 20978 ft | 441 kts | 172° |
| 2026-04-28 18:44 | 35.44068 | 10.52039 | 20974 ft | 441 kts | 172° |
| 2026-04-28 18:45 | 35.41049 | 10.52747 | 20980 ft | 441 kts | 173° |
| 2026-04-28 18:45 | 35.38031 | 10.53455 | 20970 ft | 441 kts | 173° |
| 2026-04-28 18:45 | 35.35017 | 10.54159 | 20973 ft | 441 kts | 173° |
| 2026-04-28 18:45 | 35.31992 | 10.54867 | 20974 ft | 441 kts | 173° |
| 2026-04-28 18:46 | 35.28972 | 10.55573 | 20953 ft | 441 kts | 173° |
| 2026-04-28 18:46 | 35.25954 | 10.56279 | 20965 ft | 441 kts | 173° |
| 2026-04-28 18:46 | 35.22978 | 10.56975 | 20965 ft | 440 kts | 173° |
| 2026-04-28 18:46 | 35.19967 | 10.57678 | 20974 ft | 440 kts | 173° |
| 2026-04-28 18:47 | 35.16945 | 10.58382 | 20969 ft | 442 kts | 172° |
| 2026-04-28 18:47 | 35.13912 | 10.59088 | 20969 ft | 443 kts | 172° |
| 2026-04-28 18:47 | 35.10881 | 10.59794 | 20972 ft | 443 kts | 172° |
| 2026-04-28 18:47 | 35.07856 | 10.60498 | 20963 ft | 443 kts | 172° |
| 2026-04-28 18:48 | 35.04824 | 10.61203 | 20966 ft | 443 kts | 173° |
| 2026-04-28 18:48 | 35.01800 | 10.61905 | 20957 ft | 442 kts | 173° |
| 2026-04-28 18:48 | 34.98779 | 10.62607 | 20966 ft | 442 kts | 173° |
| 2026-04-28 18:48 | 34.95759 | 10.63307 | 20871 ft | 442 kts | 173° |
| 2026-04-28 18:49 | 34.92747 | 10.64006 | 20329 ft | 440 kts | 172° |
| 2026-04-28 18:49 | 34.90760 | 10.64466 | 19865 ft | 439 kts | 172° |
| 2026-04-28 18:49 | 34.86801 | 10.65383 | 18925 ft | 433 kts | 172° |
| 2026-04-28 18:49 | 34.83821 | 10.66074 | 17904 ft | 426 kts | 172° |
| 2026-04-28 18:50 | 34.80978 | 10.66733 | 16721 ft | 418 kts | 172° |
| 2026-04-28 18:50 | 34.78146 | 10.67389 | 15532 ft | 409 kts | 172° |
| 2026-04-28 18:50 | 34.75370 | 10.68031 | 14328 ft | 403 kts | 172° |
| 2026-04-28 18:50 | 34.72650 | 10.68633 | 13643 ft | 385 kts | 175° |
| 2026-04-28 18:51 | 34.70111 | 10.68946 | 13652 ft | 352 kts | 177° |
| 2026-04-28 18:51 | 34.67740 | 10.69208 | 13682 ft | 331 kts | 178° |
| 2026-04-28 18:51 | 34.65497 | 10.69438 | 13694 ft | 315 kts | 178° |
| 2026-04-28 18:51 | 34.63365 | 10.69647 | 13702 ft | 300 kts | 178° |
| 2026-04-28 18:52 | 34.61331 | 10.69841 | 13707 ft | 286 kts | 179° |
| 2026-04-28 18:52 | 34.59397 | 10.70023 | 13710 ft | 272 kts | 179° |
| 2026-04-28 18:52 | 34.57556 | 10.70195 | 13643 ft | 261 kts | 179° |
| 2026-04-28 18:52 | 34.55741 | 10.70359 | 13090 ft | 270 kts | 179° |
| 2026-04-28 18:53 | 34.53824 | 10.70529 | 12424 ft | 283 kts | 179° |
| 2026-04-28 18:53 | 34.51825 | 10.70709 | 11782 ft | 293 kts | 179° |
| 2026-04-28 18:53 | 34.49780 | 10.70896 | 11331 ft | 295 kts | 179° |
| 2026-04-28 18:53 | 34.47733 | 10.71085 | 10967 ft | 294 kts | 178° |
| 2026-04-28 18:54 | 34.45692 | 10.71275 | 10630 ft | 292 kts | 178° |
| 2026-04-28 18:54 | 34.43666 | 10.71460 | 10250 ft | 291 kts | 177° |
| 2026-04-28 18:54 | 34.41654 | 10.71647 | 9963 ft | 288 kts | 178° |
| 2026-04-28 18:54 | 34.39666 | 10.71829 | 9584 ft | 287 kts | 177° |
| 2026-04-28 18:55 | 34.37680 | 10.72010 | 9199 ft | 286 kts | 177° |
| 2026-04-28 18:55 | 34.36365 | 10.72131 | 8937 ft | 285 kts | 176° |
| 2026-04-28 18:55 | 34.33724 | 10.72373 | 8463 ft | 283 kts | 177° |
| 2026-04-28 18:55 | 34.31782 | 10.72551 | 8204 ft | 278 kts | 177° |
| 2026-04-28 18:56 | 34.29860 | 10.72728 | 7917 ft | 277 kts | 176° |
| 2026-04-28 18:56 | 34.27936 | 10.72923 | 7730 ft | 278 kts | 175° |
| 2026-04-28 18:56 | 34.26010 | 10.73126 | 7552 ft | 277 kts | 176° |
| 2026-04-28 18:56 | 34.24091 | 10.73329 | 7392 ft | 276 kts | 176° |
| 2026-04-28 18:57 | 34.22179 | 10.73531 | 7205 ft | 275 kts | 176° |
| 2026-04-28 18:57 | 34.20275 | 10.73732 | 6867 ft | 274 kts | 176° |
| 2026-04-28 18:57 | 34.18371 | 10.73877 | 6484 ft | 275 kts | 181° |
| 2026-04-28 18:57 | 34.16484 | 10.73512 | 6135 ft | 274 kts | 198° |
| 2026-04-28 18:58 | 34.14743 | 10.72651 | 5891 ft | 268 kts | 204° |
| 2026-04-28 18:58 | 34.13088 | 10.71671 | 5645 ft | 263 kts | 206° |
| 2026-04-28 18:58 | 34.11462 | 10.70665 | 5324 ft | 261 kts | 205° |
| 2026-04-28 18:58 | 34.09850 | 10.69653 | 5018 ft | 260 kts | 206° |
| 2026-04-28 18:59 | 34.07292 | 10.68035 | 4522 ft | 257 kts | 205° |
| 2026-04-28 18:59 | 34.05704 | 10.67029 | 4252 ft | 258 kts | 205° |
| 2026-04-28 18:59 | 34.04123 | 10.66027 | 3963 ft | 255 kts | 206° |
| 2026-04-28 18:59 | 34.02577 | 10.65045 | 3828 ft | 246 kts | 204° |
| 2026-04-28 19:00 | 34.01086 | 10.64098 | 3727 ft | 237 kts | 206° |
| 2026-04-28 19:00 | 33.99659 | 10.63199 | 3627 ft | 227 kts | 206° |
| 2026-04-28 19:00 | 33.98280 | 10.62346 | 3469 ft | 220 kts | 204° |
| 2026-04-28 19:00 | 33.96905 | 10.61549 | 3242 ft | 218 kts | 203° |
| 2026-04-28 19:01 | 33.95533 | 10.60751 | 2876 ft | 221 kts | 204° |
| 2026-04-28 19:01 | 33.94145 | 10.59966 | 2616 ft | 218 kts | 202° |
| 2026-04-28 19:01 | 33.92792 | 10.59241 | 2487 ft | 207 kts | 198° |
| 2026-04-28 19:01 | 33.91455 | 10.58727 | 2307 ft | 197 kts | 194° |
| 2026-04-28 19:02 | 33.90152 | 10.58272 | 2038 ft | 194 kts | 193° |
| 2026-04-28 19:02 | 33.88858 | 10.57866 | 1741 ft | 189 kts | 179° |
| 2026-04-28 19:02 | 33.87740 | 10.58381 | 1591 ft | 164 kts | 127° |
| 2026-04-28 19:02 | 33.87299 | 10.59542 | 1597 ft | 145 kts | 104° |
| 2026-04-28 19:03 | 33.87167 | 10.60674 | 1601 ft | 132 kts | 93° |
| 2026-04-28 19:03 | 33.87163 | 10.61768 | 1612 ft | 130 kts | 90° |
| 2026-04-28 19:03 | 33.87174 | 10.62567 | 1597 ft | 131 kts | 89° |
| 2026-04-28 19:03 | 33.87196 | 10.63433 | 1590 ft | 132 kts | 89° |
| 2026-04-28 19:04 | 33.87223 | 10.64540 | 1597 ft | 132 kts | 88° |
| 2026-04-28 19:04 | 33.87247 | 10.65642 | 1593 ft | 132 kts | 89° |
| 2026-04-28 19:04 | 33.87272 | 10.66745 | 1573 ft | 131 kts | 89° |
| 2026-04-28 19:04 | 33.87302 | 10.67843 | 1504 ft | 133 kts | 87° |
| 2026-04-28 19:05 | 33.87350 | 10.68960 | 1252 ft | 133 kts | 87° |
| 2026-04-28 19:05 | 33.87369 | 10.70058 | 1042 ft | 130 kts | 89° |
| 2026-04-28 19:05 | 33.87367 | 10.71153 | 846 ft | 132 kts | 89° |
| 2026-04-28 19:05 | 33.87377 | 10.72250 | 727 ft | 130 kts | 88° |
| 2026-04-28 19:06 | 33.87421 | 10.73341 | 548 ft | 130 kts | 86° |
| 2026-04-28 19:06 | 33.87444 | 10.74052 | 412 ft | 128 kts | 86° |
| 2026-04-28 19:06 | 33.87484 | 10.75480 | 125 ft | 128 kts | 88° |
| 2026-04-28 19:06 | 33.87507 | 10.76540 | 28 ft | 121 kts | 88° |
| 2026-04-28 19:07 | 33.87534 | 10.77368 | 27 ft | 69 kts | 88° |
| 2026-04-28 19:07 | 33.87547 | 10.77815 | 25 ft | 42 kts | 88° |
| 2026-04-28 19:07 | 33.87555 | 10.78150 | 27 ft | 39 kts | 88° |
| 2026-04-28 19:07 | 33.87563 | 10.78449 | 26 ft | 31 kts | 88° |
| 2026-04-28 19:08 | 33.87531 | 10.78593 | 28 ft | 16 kts | 150° |
| 2026-04-28 19:08 | 33.87422 | 10.78582 | 27 ft | 16 kts | 216° |
| 2026-04-28 19:08 | 33.87397 | 10.78474 | 29 ft | 12 kts | 266° |
| 2026-04-28 19:08 | 33.87393 | 10.78378 | 31 ft | 12 kts | 268° |
| 2026-04-28 19:09 | 33.87393 | 10.78270 | 30 ft | 14 kts | 273° |
| 2026-04-28 19:09 | 33.87398 | 10.78150 | 30 ft | 15 kts | 268° |
| 2026-04-28 19:09 | 33.87396 | 10.78089 | 30 ft | 1 kts | 268° |
| 2026-04-28 19:09 | 33.87396 | 10.78087 | 30 ft | 0 kts | 268° |
| 2026-04-28 19:13 | 33.87396 | 10.78063 | 30 ft | 7 kts | 268° |
| 2026-04-28 19:13 | 33.87394 | 10.78006 | 30 ft | 7 kts | 267° |
| 2026-04-28 19:13 | 33.87391 | 10.77950 | 30 ft | 7 kts | 265° |
| 2026-04-28 19:13 | 33.87386 | 10.77894 | 30 ft | 7 kts | 263° |